createdAt,value
2019-02-25T00:00:37.151Z,14.30
2019-02-25T00:03:06.256Z,15.10
2019-02-25T00:05:35.248Z,14.30
2019-02-25T00:08:08.024Z,14.50
2019-02-25T00:10:37.125Z,14.37
2019-02-25T00:13:06.893Z,14.53
2019-02-25T00:15:36.050Z,14.57
2019-02-25T00:18:04.983Z,15.23
2019-02-25T00:20:33.806Z,13.80
2019-02-25T00:23:02.741Z,13.97
2019-02-25T00:25:31.576Z,13.13
2019-02-25T00:28:00.439Z,14.60
2019-02-25T00:30:29.434Z,13.10
2019-02-25T00:32:58.356Z,11.87
2019-02-25T00:35:29.158Z,14.03
2019-02-25T00:37:58.074Z,16.60
2019-02-25T00:40:27.694Z,16.83
2019-02-25T00:42:56.755Z,16.97
2019-02-25T00:45:26.454Z,16.70
2019-02-25T00:47:55.378Z,18.13
2019-02-25T00:50:24.406Z,18.87
2019-02-25T00:52:53.258Z,16.13
2019-02-25T00:55:22.150Z,19.47
2019-02-25T00:57:52.102Z,19.90
2019-02-25T01:00:21.536Z,17.57
2019-02-25T01:02:54.705Z,17.27
2019-02-25T01:05:24.165Z,15.47
2019-02-25T01:07:53.360Z,13.80
2019-02-25T01:10:22.394Z,16.93
2019-02-25T01:12:51.302Z,15.13
2019-02-25T01:15:20.145Z,15.70
2019-02-25T01:17:49.216Z,17.77
2019-02-25T01:20:18.414Z,17.10
2019-02-25T01:22:47.563Z,16.00
2019-02-25T01:25:24.255Z,14.17
2019-02-25T01:27:55.989Z,13.27
2019-02-25T01:30:25.052Z,13.23
2019-02-25T01:32:54.100Z,13.77
2019-02-25T01:35:23.083Z,14.40
2019-02-25T01:37:52.052Z,13.17
2019-02-25T01:40:21.370Z,13.00
2019-02-25T01:42:50.227Z,12.50
2019-02-25T01:45:19.258Z,11.50
2019-02-25T01:47:48.305Z,10.87
2019-02-25T01:50:17.237Z,13.80
2019-02-25T01:52:46.094Z,13.00
2019-02-25T01:55:15.119Z,13.23
2019-02-25T01:57:44.185Z,12.77
2019-02-25T02:00:14.385Z,12.43
2019-02-25T02:02:43.366Z,13.10
2019-02-25T02:05:12.534Z,11.53
2019-02-25T02:07:41.542Z,12.53
2019-02-25T02:10:11.701Z,11.20
2019-02-25T02:12:40.781Z,11.37
2019-02-25T02:15:12.553Z,12.70
2019-02-25T02:17:41.478Z,11.93
2019-02-25T02:20:12.196Z,10.50
2019-02-25T02:22:41.136Z,11.70
2019-02-25T02:25:10.634Z,13.33
2019-02-25T02:27:39.551Z,12.10
2019-02-25T02:30:11.609Z,11.53
2019-02-25T02:32:40.666Z,11.10
2019-02-25T02:35:09.826Z,10.73
2019-02-25T02:37:38.850Z,10.90
2019-02-25T02:40:08.586Z,11.67
2019-02-25T02:42:38.233Z,11.27
2019-02-25T02:45:32.558Z,11.87
2019-02-25T02:48:10.898Z,10.57
2019-02-25T02:50:39.999Z,10.40
2019-02-25T02:53:08.922Z,12.07
2019-02-25T02:55:37.844Z,9.93
2019-02-25T02:58:06.817Z,9.87
2019-02-25T03:00:35.864Z,10.30
2019-02-25T03:03:04.885Z,12.00
2019-02-25T03:05:33.968Z,11.77
2019-02-25T03:08:03.017Z,12.80
2019-02-25T03:10:32.150Z,9.83
2019-02-25T03:13:01.076Z,9.67
2019-02-25T03:15:30.305Z,10.60
2019-02-25T03:17:59.324Z,9.93
2019-02-25T03:20:29.743Z,10.37
2019-02-25T03:22:58.662Z,9.47
2019-02-25T03:25:27.966Z,10.53
2019-02-25T03:27:56.877Z,11.10
2019-02-25T03:30:25.938Z,11.30
2019-02-25T03:32:54.897Z,11.37
2019-02-25T03:35:23.726Z,8.43
2019-02-25T03:37:52.712Z,12.10
2019-02-25T03:40:22.208Z,9.27
2019-02-25T03:42:51.314Z,10.30
2019-02-25T03:45:20.585Z,9.17
2019-02-25T03:47:49.611Z,7.93
2019-02-25T03:50:18.632Z,11.27
2019-02-25T03:52:47.655Z,9.53
2019-02-25T03:55:17.484Z,9.80
2019-02-25T03:57:46.699Z,9.30
2019-02-25T04:00:20.793Z,9.93
2019-02-25T04:02:49.714Z,8.97
2019-02-25T04:05:18.937Z,8.93
2019-02-25T04:07:48.065Z,8.27
2019-02-25T04:10:17.039Z,8.03
2019-02-25T04:12:46.065Z,9.90
2019-02-25T04:15:18.042Z,9.87
2019-02-25T04:17:46.909Z,9.77
2019-02-25T04:20:16.111Z,11.70
2019-02-25T04:22:45.032Z,11.13
2019-02-25T04:25:14.039Z,18.30
2019-02-25T04:27:43.127Z,13.37
2019-02-25T04:30:15.682Z,19.43
2019-02-25T04:32:44.675Z,30.73
2019-02-25T04:35:13.717Z,11.67
2019-02-25T04:37:42.854Z,7.43
2019-02-25T04:40:12.699Z,8.30
2019-02-25T04:42:41.656Z,7.77
2019-02-25T04:45:13.038Z,9.30
2019-02-25T04:47:42.078Z,8.97
2019-02-25T04:50:11.866Z,10.07
2019-02-25T04:52:40.836Z,8.70
2019-02-25T04:55:10.516Z,8.17
2019-02-25T04:57:39.391Z,8.97
2019-02-25T05:00:14.415Z,9.60
2019-02-25T05:02:43.498Z,8.67
2019-02-25T05:05:12.558Z,7.77
2019-02-25T05:07:41.567Z,8.30
2019-02-25T05:10:14.130Z,8.73
2019-02-25T05:12:49.111Z,8.73
2019-02-25T05:15:19.496Z,8.60
2019-02-25T05:17:48.374Z,9.00
2019-02-25T05:20:17.283Z,8.93
2019-02-25T05:22:46.222Z,8.67
2019-02-25T05:25:15.189Z,9.10
2019-02-25T05:27:44.166Z,9.33
2019-02-25T05:30:13.238Z,7.83
2019-02-25T05:32:42.276Z,7.87
2019-02-25T05:35:11.598Z,8.17
2019-02-25T05:37:40.542Z,8.70
2019-02-25T05:40:12.585Z,8.10
2019-02-25T05:42:41.575Z,9.87
2019-02-25T05:45:10.787Z,8.20
2019-02-25T05:47:39.711Z,8.77
2019-02-25T05:50:11.234Z,7.90
2019-02-25T05:52:40.202Z,9.43
2019-02-25T05:55:10.893Z,9.87
2019-02-25T05:57:39.794Z,8.40
2019-02-25T06:00:12.609Z,8.47
2019-02-25T06:02:41.435Z,7.50
2019-02-25T06:05:10.451Z,9.87
2019-02-25T06:07:39.414Z,8.60
2019-02-25T06:10:08.907Z,8.07
2019-02-25T06:12:37.958Z,9.27
2019-02-25T06:15:07.853Z,8.57
2019-02-25T06:17:36.815Z,8.73
2019-02-25T06:20:06.765Z,10.23
2019-02-25T06:22:35.607Z,8.37
2019-02-25T06:25:05.135Z,8.83
2019-02-25T06:27:34.090Z,10.43
2019-02-25T06:30:03.189Z,9.13
2019-02-25T06:32:35.436Z,8.83
2019-02-25T06:35:05.293Z,7.47
2019-02-25T06:37:34.341Z,8.70
2019-02-25T06:40:05.228Z,8.50
2019-02-25T06:42:34.422Z,8.80
2019-02-25T06:45:03.475Z,8.47
2019-02-25T06:47:32.375Z,8.73
2019-02-25T06:50:01.337Z,8.90
2019-02-25T06:52:30.228Z,9.87
2019-02-25T06:54:59.150Z,9.43
2019-02-25T06:57:28.142Z,9.43
2019-02-25T06:59:57.000Z,9.77
2019-02-25T07:02:25.987Z,9.20
2019-02-25T07:05:08.474Z,8.90
2019-02-25T07:07:52.567Z,10.33
2019-02-25T07:10:39.620Z,9.83
2019-02-25T07:13:16.386Z,8.90
2019-02-25T07:16:00.811Z,9.73
2019-02-25T07:18:45.582Z,9.63
2019-02-25T07:21:28.907Z,8.90
2019-02-25T07:24:07.410Z,10.23
2019-02-25T07:26:42.617Z,10.53
2019-02-25T07:29:18.942Z,11.43
2019-02-25T07:32:15.467Z,10.63
2019-02-25T07:35:06.266Z,8.80
2019-02-25T07:37:53.338Z,9.50
2019-02-25T07:40:30.166Z,10.73
2019-02-25T07:43:12.865Z,11.70
2019-02-25T07:45:59.864Z,10.53
2019-02-25T07:48:35.734Z,10.13
2019-02-25T07:51:18.398Z,9.93
2019-02-25T07:54:06.838Z,11.20
2019-02-25T07:56:53.888Z,9.67
2019-02-25T07:59:28.149Z,11.13
2019-02-25T08:02:15.202Z,12.33
2019-02-25T08:04:54.139Z,10.87
2019-02-25T08:07:37.638Z,9.97
2019-02-25T08:10:27.227Z,10.73
2019-02-25T08:13:12.070Z,10.73
2019-02-25T08:15:49.439Z,11.77
2019-02-25T08:18:36.556Z,11.13
2019-02-25T08:21:23.234Z,11.47
2019-02-25T08:24:16.802Z,10.83
2019-02-25T08:27:03.598Z,11.20
2019-02-25T08:29:41.414Z,11.67
2019-02-25T08:32:20.933Z,11.03
2019-02-25T08:35:05.294Z,12.10
2019-02-25T08:38:00.447Z,12.03
2019-02-25T08:40:44.234Z,12.97
2019-02-25T08:43:38.286Z,11.50
2019-02-25T08:46:16.075Z,11.23
2019-02-25T08:48:58.507Z,12.73
2019-02-25T08:51:27.339Z,13.27
2019-02-25T08:53:56.226Z,11.63
2019-02-25T08:56:25.283Z,13.23
2019-02-25T08:58:54.310Z,12.67
2019-02-25T09:01:23.259Z,13.57
2019-02-25T09:03:52.126Z,13.13
2019-02-25T09:06:21.165Z,13.83
2019-02-25T09:08:50.081Z,13.50
2019-02-25T09:11:18.959Z,14.93
2019-02-25T09:13:47.802Z,13.77
2019-02-25T09:16:16.855Z,14.00
2019-02-25T09:18:45.757Z,14.83
2019-02-25T09:21:14.706Z,14.70
2019-02-25T09:23:43.566Z,13.08
2019-02-25T09:26:14.770Z,14.23
2019-02-25T09:28:46.797Z,13.72
2019-02-25T09:31:15.755Z,13.08
2019-02-25T09:33:44.639Z,13.43
2019-02-25T09:36:13.525Z,12.65
2019-02-25T09:38:42.441Z,12.93
2019-02-25T09:41:11.382Z,12.82
2019-02-25T09:43:40.253Z,11.48
2019-02-25T09:46:09.286Z,11.05
2019-02-25T09:48:38.155Z,11.15
2019-02-25T09:51:07.123Z,11.83
2019-02-25T09:53:35.990Z,10.88
2019-02-25T09:56:04.993Z,10.28
2019-02-25T09:58:33.834Z,11.80
2019-02-25T10:01:03.163Z,12.85
2019-02-25T10:03:32.134Z,11.48
2019-02-25T10:06:01.640Z,12.13
2019-02-25T10:08:30.678Z,11.25
2019-02-25T10:10:59.618Z,11.83
2019-02-25T10:13:28.890Z,12.05
2019-02-25T10:15:58.089Z,12.93
2019-02-25T10:18:27.220Z,11.97
2019-02-25T10:20:56.232Z,13.90
2019-02-25T10:23:25.142Z,12.18
2019-02-25T10:25:54.058Z,12.85
2019-02-25T10:28:23.092Z,14.37
2019-02-25T10:30:53.131Z,13.10
2019-02-25T10:33:22.172Z,12.70
2019-02-25T10:35:51.072Z,13.17
2019-02-25T10:38:21.535Z,13.10
2019-02-25T10:40:52.166Z,13.10
2019-02-25T10:43:21.495Z,12.53
2019-02-25T10:45:50.620Z,12.97
2019-02-25T10:48:21.508Z,11.83
2019-02-25T10:50:55.964Z,13.27
2019-02-25T10:53:22.090Z,11.83
2019-02-25T10:56:04.790Z,12.90
2019-02-25T10:58:35.890Z,12.30
2019-02-25T11:01:04.854Z,11.43
2019-02-25T11:03:33.808Z,11.93
2019-02-25T11:06:03.376Z,12.20
2019-02-25T11:08:33.059Z,11.53
2019-02-25T11:11:06.442Z,11.90
2019-02-25T11:13:36.653Z,12.33
2019-02-25T11:16:06.066Z,11.23
2019-02-25T11:18:35.206Z,11.43
2019-02-25T11:21:06.158Z,11.70
2019-02-25T11:23:34.858Z,11.40
2019-02-25T11:26:03.919Z,10.43
2019-02-25T11:28:35.649Z,12.17
2019-02-25T11:31:03.621Z,9.70
2019-02-25T11:33:34.288Z,11.07
2019-02-25T11:36:03.167Z,9.97
2019-02-25T11:38:35.439Z,12.30
2019-02-25T11:41:04.813Z,9.93
2019-02-25T11:43:33.380Z,10.43
2019-02-25T11:46:02.728Z,10.53
2019-02-25T11:48:31.686Z,10.07
2019-02-25T11:51:00.685Z,9.47
2019-02-25T11:53:30.253Z,10.53
2019-02-25T11:55:59.518Z,9.50
2019-02-25T11:58:28.483Z,12.67
2019-02-25T12:00:57.426Z,10.37
2019-02-25T12:03:29.185Z,9.30
2019-02-25T12:05:58.129Z,9.17
2019-02-25T12:08:26.998Z,9.37
2019-02-25T12:10:55.939Z,8.70
2019-02-25T12:13:24.974Z,8.93
2019-02-25T12:15:53.907Z,9.63
2019-02-25T12:18:22.809Z,9.87
2019-02-25T12:20:52.498Z,9.70
2019-02-25T12:23:21.357Z,8.73
2019-02-25T12:25:52.198Z,10.40
2019-02-25T12:28:21.058Z,8.90
2019-02-25T12:30:50.055Z,8.77
2019-02-25T12:33:18.942Z,9.20
2019-02-25T12:35:50.701Z,9.53
2019-02-25T12:38:19.744Z,9.43
2019-02-25T12:40:48.806Z,9.60
2019-02-25T12:43:17.735Z,8.27
2019-02-25T12:45:46.623Z,10.27
2019-02-25T12:48:15.541Z,11.63
2019-02-25T12:50:45.481Z,16.30
2019-02-25T12:53:14.358Z,12.73
2019-02-25T12:55:44.075Z,10.03
2019-02-25T12:58:13.158Z,8.90
2019-02-25T13:00:42.475Z,9.20
2019-02-25T13:03:16.129Z,9.07
2019-02-25T13:05:45.902Z,8.53
2019-02-25T13:08:14.834Z,8.43
2019-02-25T13:10:44.161Z,8.37
2019-02-25T13:13:18.614Z,8.87
2019-02-25T13:15:47.611Z,9.00
2019-02-25T13:18:17.143Z,7.97
2019-02-25T13:20:46.014Z,8.20
2019-02-25T13:23:20.490Z,8.20
2019-02-25T13:25:50.629Z,8.37
2019-02-25T13:28:21.828Z,9.10
2019-02-25T13:30:53.040Z,8.30
2019-02-25T13:33:22.824Z,7.57
2019-02-25T13:35:51.859Z,9.80
2019-02-25T13:38:20.782Z,9.17
2019-02-25T13:40:50.250Z,8.40
2019-02-25T13:43:19.205Z,8.83
2019-02-25T13:45:48.539Z,7.83
2019-02-25T13:48:17.634Z,8.20
2019-02-25T13:50:46.739Z,8.00
2019-02-25T13:53:15.809Z,8.63
2019-02-25T13:55:44.942Z,7.03
2019-02-25T13:58:13.941Z,6.87
2019-02-25T14:00:43.270Z,7.10
2019-02-25T14:03:12.722Z,6.73
2019-02-25T14:05:41.862Z,7.03
2019-02-25T14:08:14.042Z,6.37
2019-02-25T14:10:43.554Z,6.27
2019-02-25T14:13:13.356Z,6.50
2019-02-25T14:15:46.729Z,6.67
2019-02-25T14:18:15.874Z,7.20
2019-02-25T14:20:46.221Z,6.73
2019-02-25T14:23:16.139Z,6.37
2019-02-25T14:25:45.199Z,6.07
2019-02-25T14:28:14.427Z,6.43
2019-02-25T14:30:43.910Z,6.97
2019-02-25T14:33:17.396Z,6.07
2019-02-25T14:35:50.295Z,6.93
2019-02-25T14:38:22.687Z,7.67
2019-02-25T14:40:56.798Z,7.60
2019-02-25T14:43:37.187Z,7.17
2019-02-25T14:46:04.849Z,7.37
2019-02-25T14:48:35.357Z,7.23
2019-02-25T14:51:05.035Z,10.07
2019-02-25T14:53:41.751Z,8.50
2019-02-25T14:56:11.439Z,8.77
2019-02-25T14:58:42.606Z,11.43
2019-02-25T15:01:11.828Z,9.83
2019-02-25T15:03:41.777Z,8.13
2019-02-25T15:06:10.833Z,8.17
2019-02-25T15:08:42.706Z,7.97
2019-02-25T15:11:13.053Z,9.97
2019-02-25T15:13:45.660Z,29.33
2019-02-25T15:16:17.391Z,10.93
2019-02-25T15:18:50.562Z,7.70
2019-02-25T15:21:21.143Z,7.77
2019-02-25T15:23:52.378Z,6.97
2019-02-25T15:26:22.054Z,7.50
2019-02-25T15:28:56.090Z,7.03
2019-02-25T15:31:24.021Z,6.10
2019-02-25T15:33:55.467Z,6.87
2019-02-25T15:36:25.368Z,6.97
2019-02-25T15:38:56.621Z,7.43
2019-02-25T15:41:27.164Z,7.80
2019-02-25T15:44:02.338Z,7.17
2019-02-25T15:46:34.220Z,6.67
2019-02-25T15:49:03.644Z,6.63
2019-02-25T15:51:35.086Z,6.07
2019-02-25T15:54:06.084Z,7.47
2019-02-25T15:56:36.261Z,7.07
2019-02-25T15:59:08.945Z,6.67
2019-02-25T16:01:39.012Z,16.13
2019-02-25T16:04:11.235Z,12.90
2019-02-25T16:06:41.309Z,7.77
2019-02-25T16:09:11.378Z,10.90
2019-02-25T16:11:41.455Z,9.93
2019-02-25T16:14:12.031Z,7.20
2019-02-25T16:16:42.096Z,6.97
2019-02-25T16:19:13.606Z,5.93
2019-02-25T16:21:43.482Z,6.83
2019-02-25T16:24:14.095Z,7.00
2019-02-25T16:26:44.662Z,7.43
2019-02-25T16:29:19.368Z,7.53
2019-02-25T16:31:49.489Z,10.77
2019-02-25T16:34:25.480Z,9.63
2019-02-25T16:36:56.023Z,10.47
2019-02-25T16:39:25.455Z,8.40
2019-02-25T16:41:54.387Z,7.60
2019-02-25T16:44:23.295Z,6.27
2019-02-25T16:46:54.053Z,7.67
2019-02-25T16:49:22.934Z,6.33
2019-02-25T16:51:53.287Z,7.07
2019-02-25T16:54:22.900Z,6.90
2019-02-25T16:56:53.404Z,6.60
2019-02-25T16:59:24.740Z,5.93
2019-02-25T17:01:55.881Z,7.20
2019-02-25T17:04:25.473Z,5.90
2019-02-25T17:06:55.719Z,7.00
2019-02-25T17:09:27.417Z,7.23
2019-02-25T17:11:57.945Z,7.07
2019-02-25T17:14:27.062Z,7.53
2019-02-25T17:16:57.013Z,6.27
2019-02-25T17:19:26.503Z,8.00
2019-02-25T17:21:55.494Z,7.17
2019-02-25T17:24:26.480Z,7.70
2019-02-25T17:26:55.103Z,7.77
2019-02-25T17:29:24.627Z,7.03
2019-02-25T17:31:55.404Z,8.23
2019-02-25T17:34:25.310Z,8.20
2019-02-25T17:36:54.702Z,8.27
2019-02-25T17:39:23.792Z,8.37
2019-02-25T17:41:52.853Z,7.97
2019-02-25T17:44:23.384Z,7.53
2019-02-25T17:46:52.720Z,8.40
2019-02-25T17:49:21.869Z,7.57
2019-02-25T17:51:51.286Z,6.97
2019-02-25T17:54:23.947Z,8.30
2019-02-25T17:56:52.854Z,9.60
2019-02-25T17:59:23.502Z,11.47
2019-02-25T18:01:52.482Z,11.53
2019-02-25T18:04:21.591Z,13.27
2019-02-25T18:06:50.623Z,13.87
2019-02-25T18:09:20.462Z,17.03
2019-02-25T18:11:50.427Z,15.40
2019-02-25T18:14:19.943Z,14.43
2019-02-25T18:16:50.826Z,13.60
2019-02-25T18:19:20.852Z,13.63
2019-02-25T18:21:51.094Z,11.90
2019-02-25T18:24:20.073Z,9.57
2019-02-25T18:26:49.139Z,10.23
2019-02-25T18:29:19.133Z,8.47
2019-02-25T18:31:48.943Z,9.10
2019-02-25T18:34:18.174Z,10.03
2019-02-25T18:36:48.842Z,8.60
2019-02-25T18:39:18.042Z,11.60
2019-02-25T18:41:48.453Z,11.97
2019-02-25T18:44:17.655Z,12.03
2019-02-25T18:46:48.276Z,12.03
2019-02-25T18:49:17.549Z,12.17
2019-02-25T18:51:46.992Z,12.70
2019-02-25T18:54:16.937Z,10.50
2019-02-25T18:56:46.725Z,10.53
2019-02-25T18:59:17.959Z,11.20
2019-02-25T19:01:47.680Z,14.57
2019-02-25T19:04:19.646Z,17.30
2019-02-25T19:06:48.535Z,15.37
2019-02-25T19:09:21.222Z,12.13
2019-02-25T19:11:52.970Z,10.73
2019-02-25T19:14:22.430Z,11.57
2019-02-25T19:16:52.494Z,9.80
2019-02-25T19:19:21.524Z,10.40
2019-02-25T19:21:52.087Z,10.23
2019-02-25T19:24:21.330Z,10.50
2019-02-25T19:26:50.694Z,10.30
2019-02-25T19:29:21.671Z,9.33
2019-02-25T19:31:56.361Z,10.60
2019-02-25T19:34:27.998Z,11.13
2019-02-25T19:37:00.164Z,10.60
2019-02-25T19:39:27.922Z,10.30
2019-02-25T19:41:58.393Z,20.73
2019-02-25T19:44:28.223Z,40.83
2019-02-25T19:47:00.694Z,18.00
2019-02-25T19:49:31.443Z,17.03
2019-02-25T19:52:02.513Z,11.30
2019-02-25T19:54:34.078Z,11.50
2019-02-25T19:57:02.106Z,10.00
2019-02-25T19:59:31.379Z,10.47
2019-02-25T20:02:00.555Z,10.47
2019-02-25T20:04:33.478Z,10.53
2019-02-25T20:07:00.845Z,10.37
2019-02-25T20:09:30.565Z,11.43
2019-02-25T20:12:01.350Z,10.53
2019-02-25T20:14:31.449Z,9.83
2019-02-25T20:17:02.641Z,9.67
2019-02-25T20:19:31.692Z,12.40
2019-02-25T20:22:01.235Z,11.30
2019-02-25T20:24:30.106Z,12.50
2019-02-25T20:27:02.323Z,9.93
2019-02-25T20:29:33.860Z,9.80
2019-02-25T20:32:03.897Z,10.23
2019-02-25T20:34:34.742Z,9.17
2019-02-25T20:37:03.947Z,10.30
2019-02-25T20:39:33.816Z,29.83
2019-02-25T20:42:05.252Z,13.20
2019-02-25T20:44:34.933Z,12.40
2019-02-25T20:47:04.317Z,11.60
2019-02-25T20:49:33.576Z,11.33
2019-02-25T20:52:04.498Z,10.77
2019-02-25T20:54:38.079Z,10.63
2019-02-25T20:57:08.442Z,9.63
2019-02-25T20:59:37.154Z,10.10
2019-02-25T21:02:09.320Z,10.13
2019-02-25T21:04:38.685Z,11.20
2019-02-25T21:07:08.817Z,11.70
2019-02-25T21:09:40.398Z,10.60
2019-02-25T21:12:13.181Z,10.97
2019-02-25T21:14:43.212Z,12.23
2019-02-25T21:17:13.414Z,10.50
2019-02-25T21:19:45.225Z,11.13
2019-02-25T21:22:15.425Z,10.23
2019-02-25T21:24:44.714Z,10.47
2019-02-25T21:27:17.998Z,11.10
2019-02-25T21:29:47.117Z,10.63
2019-02-25T21:32:17.409Z,11.17
2019-02-25T21:34:50.970Z,11.37
2019-02-25T21:37:18.783Z,9.80
2019-02-25T21:39:47.896Z,11.40
2019-02-25T21:42:26.886Z,11.63
2019-02-25T21:44:57.606Z,11.27
2019-02-25T21:47:40.736Z,10.70
2019-02-25T21:50:15.881Z,11.80
2019-02-25T21:52:47.967Z,11.17
2019-02-25T21:55:23.310Z,10.17
2019-02-25T21:57:54.908Z,11.57
2019-02-25T22:03:22.943Z,11.27
2019-02-25T22:05:49.555Z,10.83
2019-02-25T22:08:20.242Z,9.83
2019-02-25T22:10:51.763Z,9.70
2019-02-25T22:13:21.882Z,9.53
2019-02-25T22:15:50.959Z,9.93
2019-02-25T22:18:19.950Z,9.90
2019-02-25T22:20:49.303Z,9.03
2019-02-25T22:23:22.005Z,10.53
2019-02-25T22:25:49.993Z,9.97
2019-02-25T22:28:20.973Z,10.23
2019-02-25T22:30:51.792Z,10.17
2019-02-25T22:33:27.450Z,11.03
2019-02-25T22:35:51.921Z,11.20
2019-02-25T22:38:21.109Z,10.33
2019-02-25T22:40:51.086Z,9.27
2019-02-25T22:43:20.871Z,10.07
2019-02-25T22:45:50.348Z,10.73
2019-02-25T22:48:21.529Z,9.67
2019-02-25T22:50:53.221Z,11.03
2019-02-25T22:53:23.590Z,9.47
2019-02-25T22:55:54.733Z,10.60
2019-02-25T22:58:23.134Z,9.43
2019-02-25T23:00:58.204Z,10.50
2019-02-25T23:03:27.698Z,10.30
2019-02-25T23:05:58.975Z,21.10
2019-02-25T23:08:27.911Z,11.80
2019-02-25T23:10:56.784Z,10.83
2019-02-25T23:13:27.493Z,9.37
2019-02-25T23:15:56.350Z,10.13
2019-02-25T23:18:27.940Z,10.27
2019-02-25T23:20:59.756Z,9.70
2019-02-25T23:23:28.697Z,10.70
2019-02-25T23:25:58.452Z,9.83
2019-02-25T23:28:28.570Z,10.17
2019-02-25T23:30:58.154Z,10.80
2019-02-25T23:33:27.102Z,10.07
2019-02-25T23:35:56.198Z,10.27
2019-02-25T23:38:25.077Z,9.70
2019-02-25T23:40:54.074Z,9.63
2019-02-25T23:43:24.034Z,11.37
2019-02-25T23:45:53.277Z,10.60
2019-02-25T23:48:22.125Z,11.67
2019-02-25T23:50:53.280Z,10.30
2019-02-25T23:53:24.491Z,10.43
2019-02-25T23:55:56.057Z,10.10
2019-02-25T23:58:24.988Z,11.10
